Latest Weather Observations for Moss Vale

IDN60801

Issued at 10:53 pm EDT Wednesday 1 February 2023 (issued every 10 minutes, with the page automatically refreshed every 10 minutes)

About weather observations | Map of weather stations | Latest weather observations for NSW | Other Formats
Station Details ID: 068239 Name: MOSS VALE AWS Lat: -34.53 Lon: 150.42 Height: 678.4 m
Data from the previous 72 hours. | See also: Recent months at Moss Vale
Date/Time
EDT
Temp
°C
App
Temp
°C
Dew
Point
°C
Rel
Hum
%
Delta-T
°C
Wind Press
QNH
hPa
Press
MSL
hPa
Rain since
9am
mm
Dir  Spd
km/h
Gust
km/h
Spd
kts
Gust
kts
01/10:33pm 17.4 17.7 15.9 91 0.9 ENE 9 13 5 7 1005.7 1002.6 0.0
01/10:30pm 17.3 17.5 15.8 91 0.9 ENE 9 13 5 7 1005.7 1002.6 0.0
01/10:01pm 17.4 17.7 15.9 91 0.9 ENE 9 11 5 6 1005.7 1002.6 0.0
01/10:00pm 17.4 18.0 15.9 91 0.9 ENE 7 11 4 6 1005.7 1002.6 0.0
01/09:45pm 17.4 18.2 15.9 91 0.9 E 6 7 3 4 1005.7 1002.6 0.0
01/09:30pm 17.2 17.7 15.5 90 1.0 E 7 9 4 5 1005.6 1002.5 0.0
01/09:00pm 17.1 18.8 15.3 89 1.1 CALM 0 6 0 3 1005.4 1002.3 0.0
01/08:48pm 17.2 17.3 15.4 89 1.1 NE 9 11 5 6 1004.9 1001.8 0.0
01/08:30pm 17.4 17.1 15.4 88 1.2 E 11 17 6 9 1004.8 1001.7 0.0
01/08:00pm 17.6 16.8 15.2 86 1.4 E 13 15 7 8 1004.7 1001.6 0.0
01/07:39pm 18.1 17.3 15.2 83 1.7 E 13 19 7 10 1004.5 1001.4 0.0
01/07:30pm 18.3 17.2 15.4 83 1.8 ENE 15 19 8 10 1004.5 1001.4 0.0
01/07:00pm 18.8 17.8 15.5 81 2.0 E 15 20 8 11 1004.2 1001.1 0.0
01/06:30pm 19.5 17.7 15.6 78 2.4 ENE 19 26 10 14 1003.9 1000.7 0.0
01/06:00pm 20.2 19.0 16.2 78 2.5 E 17 24 9 13 1003.9 1000.7 0.0
01/05:30pm 21.2 19.6 16.4 74 3.0 ENE 20 26 11 14 1003.6 1000.5 0.0
01/05:00pm 20.7 18.7 16.5 77 2.6 ENE 22 28 12 15 1003.6 1000.5 0.0
01/04:30pm 22.6 21.0 17.5 73 3.2 E 22 32 12 17 1003.6 1000.5 0.0
01/04:00pm 22.4 20.5 16.7 70 3.6 ENE 22 26 12 14 1003.6 1000.5 0.0
01/03:30pm 23.3 21.7 16.6 66 4.2 ENE 20 28 11 15 1003.6 1000.5 0.0
01/03:00pm 24.0 22.6 16.5 63 4.7 ENE 19 26 10 14 1003.8 1000.6 0.0
01/02:30pm 24.1 24.1 15.3 58 5.4 SSW 9 17 5 9 1004.1 1001.0 0.0
01/02:00pm 24.1 22.6 16.4 62 4.9 SSE 19 26 10 14 1004.3 1001.2 0.0
01/01:30pm 24.7 24.3 14.2 52 6.4 W 9 20 5 11 1004.5 1001.4 0.0
01/01:00pm 24.7 24.3 16.2 59 5.4 WSW 13 22 7 12 1004.9 1001.8 0.0
01/12:30pm 23.9 23.3 15.7 60 5.1 S 13 17 7 9 1005.1 1002.0 0.0
01/12:00pm 23.7 25.0 17.2 67 4.1 SW 6 13 3 7 1005.5 1002.4 0.0
01/11:30am 21.8 21.8 15.2 66 4.0 SSW 9 13 5 7 1005.8 1002.7 0.0
01/11:12am 21.8 22.3 15.6 68 3.8 WSW 7 11 4 6 1005.9 1002.8 0.0
01/11:00am 21.4 21.7 15.0 67 3.9 WSW 7 11 4 6 1006.0 1002.9 0.0
01/10:54am 21.2 21.5 15.1 68 3.7 WNW 7 11 4 6 1006.0 1002.7 0.0
01/10:30am 21.1 21.2 15.4 70 3.5 SSW 9 13 5 7 1006.0 1002.7 0.0
01/10:00am 19.5 19.7 14.7 74 2.9 SW 7 15 4 8 1006.1 1002.8 0.0
01/09:30am 19.3 19.1 14.6 74 2.8 SSE 9 15 5 8 1006.1 1002.8 0.0
01/09:19am 18.6 18.6 15.1 80 2.1 SSW 9 13 5 7 1006.1 1002.8 0.0
01/09:00am 17.6 16.8 13.9 79 2.2 SW 11 13 6 7 1006.2 1002.9 0.0
01/08:30am 17.3 16.2 14.4 83 1.7 WSW 13 17 7 9 1006.2 1002.9 0.0
01/08:16am 17.1 16.9 14.6 85 1.5 WSW 9 15 5 8 1006.1 1002.8 0.0
01/08:00am 16.1 16.4 14.6 91 0.9 SSW 6 7 3 4 1006.1 1002.8 0.0
01/07:30am 14.8 14.9 14.5 98 0.2 SSW 7 9 4 5 1006.0 1002.7 0.0
01/07:18am 14.8 15.1 14.5 98 0.2 SSW 6 7 3 4 1005.9 1002.6 0.0
01/07:01am 13.9 13.3 13.6 98 0.2 SSW 9 9 5 5 1006.0 1002.7 0.0
01/07:00am 13.8 13.2 13.5 98 0.2 SSW 9 9 5 5 1006.0 1002.7 0.0
01/06:40am 13.4 12.6 12.8 96 0.3 SSW 9 9 5 5 1005.8 1002.5 0.0
01/06:35am 13.5 13.1 12.9 96 0.3 SSW 7 9 4 5 1005.8 1002.5 0.0
01/06:32am 13.6 13.2 13.0 96 0.3 SSW 7 9 4 5 1005.7 1002.3 0.0
01/06:30am 13.7 13.3 13.1 96 0.3 SSW 7 9 4 5 1005.7 1002.3 0.0
01/06:00am 14.4 14.4 13.6 95 0.5 SW 6 7 3 4 1005.6 1002.2 0.0
01/05:30am 14.4 13.8 13.4 94 0.6 WSW 9 11 5 6 1005.6 1002.2 0.0
01/05:00am 14.8 14.3 13.8 94 0.6 WSW 9 11 5 6 1005.6 1002.2 0.0
01/04:30am 14.7 13.7 13.4 92 0.7 SSW 11 15 6 8 1005.5 1002.1 0.0
01/04:25am 14.7 13.7 13.4 92 0.7 SSW 11 15 6 8 1005.5 1002.1 0.0
01/04:12am 14.7 12.9 13.2 91 0.9 SSW 15 19 8 10 1005.5 1002.1 0.0
01/04:00am 14.9 13.6 13.6 92 0.8 SSW 13 17 7 9 1005.5 1002.1 0.0
01/03:30am 14.9 13.5 13.4 91 0.9 S 13 15 7 8 1005.6 1002.2 0.0
01/03:00am 15.4 14.5 13.8 90 0.9 S 11 15 6 8 1005.9 1002.6 0.0
01/02:30am 15.5 14.3 14.0 91 0.9 S 13 20 7 11 1006.0 1002.7 0.0
01/02:00am 15.6 13.3 14.0 90 0.9 S 19 28 10 15 1006.0 1002.7 0.0
01/01:30am 15.7 13.4 14.1 90 0.9 SSW 19 32 10 17 1006.4 1003.1 0.0
01/01:00am 15.7 14.2 14.1 90 0.9 S 15 22 8 12 1006.5 1003.2 0.0
01/12:30am 15.8 13.9 14.3 91 0.9 S 17 26 9 14 1006.7 1003.4 0.0
01/12:00am 15.8 13.9 14.2 90 0.9 S 17 26 9 14 1006.7 1003.4 0.0
 
Date/Time
EDT
Temp
°C
App
Temp
°C
Dew
Point
°C
Rel
Hum
%
Delta-T
°C
Wind Press
QNH
hPa
Press
MSL
hPa
Rain since
9am
mm
Dir  Spd
km/h
Gust
km/h
Spd
kts
Gust
kts
31/11:30pm 16.0 14.6 14.4 90 0.9 S 15 20 8 11 1007.2 1003.9 0.0
31/11:00pm 16.0 14.2 14.4 90 0.9 S 17 24 9 13 1007.2 1003.9 0.0
31/10:30pm 16.1 13.9 14.3 89 1.1 S 19 26 10 14 1007.4 1004.1 0.0
31/10:00pm 16.3 13.1 14.3 88 1.2 S 24 32 13 17 1007.6 1004.3 0.0
31/09:30pm 16.5 15.1 14.5 88 1.2 S 15 22 8 12 1007.5 1004.2 0.0
31/09:16pm 16.6 15.5 14.4 87 1.3 S 13 19 7 10 1007.4 1004.1 0.0
31/09:02pm 16.6 14.8 14.4 87 1.3 S 17 24 9 13 1007.3 1004.0 0.0
31/09:00pm 16.7 14.9 14.5 87 1.3 S 17 24 9 13 1007.3 1004.0 0.0
31/08:41pm 16.9 16.3 14.7 87 1.3 S 11 15 6 8 1007.2 1003.9 0.0
31/08:30pm 16.9 15.6 14.7 87 1.3 S 15 20 8 11 1007.0 1003.6 0.0
31/08:00pm 17.2 15.1 14.7 85 1.5 SSE 19 26 10 14 1006.7 1003.4 0.0
31/07:30pm 18.0 15.4 14.9 82 1.9 SSE 22 32 12 17 1006.2 1002.9 0.0
31/07:00pm 18.7 16.7 15.4 81 2.0 SSE 20 28 11 15 1006.0 1002.7 0.0
31/06:30pm 18.9 16.1 15.4 80 2.1 SSE 24 33 13 18 1005.8 1002.5 0.0
31/06:00pm 19.5 16.9 15.8 79 2.3 SSE 24 32 13 17 1005.8 1002.5 0.0
31/05:30pm 19.9 17.7 16.0 78 2.4 SSE 22 32 12 17 1005.8 1002.5 0.0
31/05:00pm 20.8 19.2 16.4 76 2.7 SE 20 28 11 15 1005.8 1002.5 0.0
31/04:30pm 21.7 19.5 16.0 70 3.5 S 22 30 12 16 1006.0 1002.7 0.0
31/04:00pm 21.5 19.7 16.0 71 3.4 S 20 26 11 14 1006.1 1002.8 0.0
31/03:30pm 21.5 18.9 15.8 70 3.5 SW 24 30 13 16 1006.1 1002.8 0.0
31/03:00pm 20.8 18.1 15.6 72 3.2 SSW 24 32 13 17 1006.2 1002.9 0.0
31/02:30pm 21.2 18.6 16.0 72 3.2 SSW 24 30 13 16 1006.6 1003.3 0.0
31/02:00pm 20.3 17.3 15.9 76 2.7 SSW 26 32 14 17 1007.0 1003.6 0.0
31/01:30pm 19.6 17.5 16.3 81 2.0 SSW 22 30 12 16 1007.3 1004.0 0.0
31/01:00pm 19.0 16.6 15.5 80 2.1 SSW 22 30 12 16 1007.5 1004.2 0.0
31/12:30pm 20.0 18.4 16.4 80 2.2 SSW 20 32 11 17 1007.8 1004.5 0.0
31/12:00pm 19.0 16.6 15.3 79 2.2 S 22 35 12 19 1008.0 1004.7 0.0
31/11:30am 18.3 15.3 14.8 80 2.1 SSW 24 35 13 19 1008.0 1004.7 0.0
31/11:29am 18.4 15.5 15.1 81 2.0 SSW 24 35 13 19 1008.0 1004.7 0.0
31/11:00am 18.9 17.1 16.0 83 1.8 S 20 32 11 17 1008.3 1005.0 0.0
31/10:30am 18.2 16.4 16.0 87 1.3 SSW 20 32 11 17 1008.5 1005.2 0.0
31/10:00am 17.0 13.8 15.2 89 1.1 SSW 26 33 14 18 1008.5 1005.2 0.0
31/09:30am 16.4 13.0 14.8 90 1.0 SSW 26 33 14 18 1008.5 1005.2 0.0
31/09:00am 16.1 13.1 14.8 92 0.8 SSW 24 35 13 19 1008.6 1005.3 12.2
31/08:30am 15.6 13.4 15.0 96 0.4 SSW 20 32 11 17 1008.6 1005.3 12.2
31/08:00am 15.3 13.2 14.8 97 0.3 SSW 19 26 10 14 1008.6 1005.3 12.2
31/07:30am 15.1 13.7 14.6 97 0.3 SSW 15 22 8 12 1008.5 1005.2 12.2
31/07:00am 15.0 13.6 14.5 97 0.3 SW 15 19 8 10 1008.3 1005.0 12.0
31/06:30am 15.0 13.6 14.5 97 0.3 SW 15 20 8 11 1007.9 1004.6 12.0
31/06:00am 15.1 13.8 14.8 98 0.2 SSW 15 22 8 12 1008.0 1004.7 12.0
31/05:30am 15.2 13.6 14.9 98 0.2 SSW 17 26 9 14 1008.1 1004.8 12.0
31/05:00am 15.1 14.2 14.8 98 0.2 SSW 13 17 7 9 1008.0 1004.7 12.0
31/04:30am 15.1 13.0 14.8 98 0.2 SSW 19 26 10 14 1007.9 1004.6 12.0
31/04:20am 15.1 13.0 14.8 98 0.2 S 19 24 10 13 1007.9 1004.6 12.0
31/04:00am 15.2 12.6 14.9 98 0.2 S 22 30 12 16 1007.9 1004.6 12.0
31/03:30am 15.5 14.0 15.2 98 0.2 S 17 20 9 11 1008.1 1004.8 12.0
31/03:00am 15.6 14.5 15.3 98 0.2 S 15 20 8 11 1008.6 1005.3 11.8
31/02:31am 15.5 14.4 15.2 98 0.2 SSW 15 19 8 10 1008.8 1005.5 11.8
31/02:30am 15.5 14.4 15.2 98 0.2 S 15 19 8 10 1008.8 1005.5 11.8
31/02:29am 15.5 14.4 15.2 98 0.2 S 15 19 8 10 1008.8 1005.5 11.8
31/02:00am 15.6 14.5 15.3 98 0.2 S 15 22 8 12 1009.2 1005.9 11.6
31/01:30am 15.7 14.6 15.4 98 0.2 S 15 22 8 12 1009.4 1006.1 11.4
31/01:00am 15.7 14.2 15.4 98 0.2 S 17 28 9 15 1009.5 1006.2 11.4
31/12:30am 15.9 14.5 15.6 98 0.2 S 17 22 9 12 1009.5 1006.2 11.2
31/12:08am 15.8 14.0 15.5 98 0.2 S 19 28 10 15 1009.7 1006.5 11.2
31/12:00am 15.8 14.0 15.5 98 0.2 S 19 26 10 14 1009.7 1006.5 11.2
 
Date/Time
EDT
Temp
°C
App
Temp
°C
Dew
Point
°C
Rel
Hum
%
Delta-T
°C
Wind Press
QNH
hPa
Press
MSL
hPa
Rain since
9am
mm
Dir  Spd
km/h
Gust
km/h
Spd
kts
Gust
kts
30/11:40pm 15.8 13.8 15.5 98 0.2 S 20 32 11 17 1010.0 1006.7 11.2
30/11:30pm 15.8 14.0 15.5 98 0.2 S 19 28 10 15 1010.1 1006.8 11.2
30/11:12pm 15.7 13.7 15.4 98 0.2 S 20 32 11 17 1010.2 1006.9 11.2
30/11:04pm 15.6 13.5 15.3 98 0.2 S 20 32 11 17 1010.2 1006.9 11.2
30/11:00pm 15.6 13.5 15.3 98 0.2 S 20 30 11 16 1010.2 1006.9 11.0
30/10:54pm 15.7 13.3 15.4 98 0.2 S 22 33 12 18 1010.3 1007.0 11.0
30/10:46pm 15.7 13.7 15.4 98 0.2 S 20 32 11 17 1010.4 1007.1 11.0
30/10:30pm 15.8 14.0 15.5 98 0.2 S 19 22 10 12 1010.6 1007.3 11.0
30/10:00pm 15.5 12.6 15.2 98 0.2 S 24 33 13 18 1010.9 1007.6 11.0
30/09:58pm 15.5 12.6 15.2 98 0.2 S 24 33 13 18 1010.9 1007.6 11.0
30/09:37pm 15.6 13.5 15.3 98 0.2 S 20 33 11 18 1010.9 1007.6 10.8
30/09:30pm 15.6 13.5 15.3 98 0.2 S 20 30 11 16 1010.9 1007.6 10.8
30/09:00pm 15.8 13.8 15.5 98 0.2 SSE 20 32 11 17 1010.8 1007.5 10.8
30/08:30pm 15.9 13.9 15.6 98 0.2 S 20 30 11 16 1010.7 1007.4 10.8
30/08:00pm 16.0 13.7 15.7 98 0.2 S 22 28 12 15 1010.9 1007.6 10.6
30/07:30pm 16.3 14.1 16.0 98 0.2 SSE 22 35 12 19 1010.6 1007.3 10.4
30/07:14pm 16.5 14.0 16.2 98 0.2 SSE 24 35 13 19 1010.3 1007.0 10.2
30/07:00pm 16.6 14.1 16.1 97 0.3 S 24 33 13 18 1010.2 1006.9 9.8
30/06:30pm 17.0 15.0 16.5 97 0.3 SSE 22 33 12 18 1009.8 1006.6 9.6
30/06:00pm 17.1 14.4 16.6 97 0.3 SSE 26 37 14 20 1009.6 1006.3 8.0
30/05:30pm 17.4 14.1 16.9 97 0.3 S 30 41 16 22 1009.4 1006.1 7.6
30/05:18pm 17.5 14.6 17.0 97 0.3 SSE 28 44 15 24 1009.3 1006.0 7.6
30/05:00pm 17.6 15.6 17.3 98 0.2 SSE 24 35 13 19 1009.5 1006.2 7.2
30/04:30pm 17.6 16.2 17.1 97 0.3 S 20 30 11 16 1010.0 1006.7 4.2
30/04:04pm 17.8 14.9 17.0 95 0.5 SSE 28 37 15 20 1009.8 1006.6 1.8
30/04:00pm 17.9 14.9 16.9 94 0.6 SSE 28 37 15 20 1009.7 1006.5 1.4
30/03:30pm 19.2 16.5 17.5 90 1.1 S 28 37 15 20 1010.0 1006.7 1.0
30/03:25pm 19.5 16.8 17.5 88 1.3 S 28 35 15 19 1009.8 1006.6 1.0
30/03:00pm 21.5 21.8 19.6 89 1.2 S 17 20 9 11 1010.1 1006.8 1.0
30/02:30pm 21.8 22.4 18.6 82 2.1 SW 13 19 7 10 1010.4 1007.1 1.0
30/02:00pm 21.5 22.2 18.9 85 1.7 SW 13 20 7 11 1010.7 1007.4 1.0
30/01:37pm 20.8 21.7 19.3 91 1.0 SW 13 17 7 9 1010.8 1007.5 1.0
30/01:30pm 20.6 20.9 18.7 89 1.2 SW 15 26 8 14 1010.9 1007.6 0.8
30/01:20pm 20.6 19.7 17.8 84 1.8 WSW 19 30 10 16 1011.0 1007.8 0.6
30/01:00pm 23.4 23.2 17.6 70 3.7 W 15 20 8 11 1011.1 1007.9 0.0
30/12:30pm 24.6 24.9 18.8 70 3.8 WSW 15 20 8 11 1011.4 1008.2 0.0
30/12:00pm 23.2 23.1 17.0 68 3.9 WNW 13 20 7 11 1011.9 1008.6 0.0
30/11:30am 22.4 22.4 16.2 68 3.9 NW 11 15 6 8 1012.3 1009.0 0.0
30/11:00am 22.4 22.2 16.7 70 3.6 NW 13 15 7 8 1012.5 1009.3 0.0
30/10:30am 22.3 21.2 16.3 69 3.7 N 17 22 9 12 1012.6 1009.4 0.0
30/10:00am 22.7 22.8 17.4 72 3.4 N 13 17 7 9 1012.7 1009.5 0.0
30/09:30am 21.1 19.5 16.1 73 3.1 N 19 22 10 12 1012.7 1009.5 0.0
30/09:00am 20.9 19.5 16.5 76 2.7 N 19 26 10 14 1012.9 1009.7 1.2
30/08:30am 20.3 20.4 16.5 79 2.4 N 11 17 6 9 1013.4 1010.1 1.2
30/08:00am 20.1 18.4 16.3 79 2.4 NNW 20 28 11 15 1013.5 1010.2 1.2
30/07:30am 19.3 17.6 16.3 83 1.9 N 20 26 11 14 1013.3 1010.0 1.2
30/07:00am 19.1 17.1 16.5 85 1.6 N 22 28 12 15 1012.9 1009.7 1.2
30/06:30am 18.7 16.2 17.2 91 0.9 N 26 35 14 19 1012.4 1009.2 1.2
30/06:00am 18.1 17.8 16.4 90 1.0 NNW 13 17 7 9 1012.9 1009.7 1.0
30/05:30am 18.9 18.5 16.1 84 1.7 W 13 15 7 8 1013.3 1010.0 0.6
30/05:00am 19.0 18.9 15.9 82 1.9 NNW 11 17 6 9 1012.8 1009.6 0.6
30/04:30am 19.5 18.2 15.8 79 2.3 N 17 24 9 13 1012.6 1009.4 0.6
30/04:00am 19.4 18.1 15.9 80 2.1 N 17 26 9 14 1012.8 1009.6 0.6
30/03:30am 19.4 18.2 16.2 82 2.0 N 17 22 9 12 1013.3 1010.0 0.6
30/03:00am 19.2 18.1 17.2 88 1.3 N 19 28 10 15 1013.6 1010.3 0.6
30/02:30am 19.4 19.1 18.2 93 0.8 N 17 20 9 11 1014.2 1011.0 0.6
30/02:28am 19.5 19.6 18.3 93 0.8 N 15 20 8 11 1014.2 1011.0 0.6
30/02:00am 19.8 22.4 18.5 92 0.8 W 2 7 1 4 1015.0 1011.8 0.4
30/01:48am 19.8 21.1 18.5 92 0.8 WNW 9 15 5 8 1015.3 1012.1 0.4
30/01:30am 19.8 20.4 18.5 92 0.8 NNW 13 19 7 10 1015.3 1012.1 0.4
30/01:00am 19.7 19.8 18.4 92 0.8 NNE 15 20 8 11 1015.2 1012.0 0.4
30/12:30am 19.9 19.2 18.2 90 1.1 NNE 19 26 10 14 1015.9 1012.7 0.2
30/12:00am 19.9 19.9 18.0 89 1.2 NNE 15 19 8 10 1016.0 1012.8 0.2
 
Date/Time
EDT
Temp
°C
App
Temp
°C
Dew
Point
°C
Rel
Hum
%
Delta-T
°C
Wind Press
QNH
hPa
Press
MSL
hPa
Rain since
9am
mm
Dir  Spd
km/h
Gust
km/h
Spd
kts
Gust
kts
29/11:30pm 20.0 20.4 18.1 89 1.2 NE 13 19 7 10 1016.6 1013.4 0.2
29/11:00pm 19.6 20.7 17.9 90 1.1 NNE 9 13 5 7 1017.0 1013.8 0.2

Other formats

Comma delimited format used in spreadsheet applications
http://www.bom.gov.au/fwo/IDN60801/IDN60801.94746.axf

JavaScript Object Notation format (JSON) in row-major order
http://www.bom.gov.au/fwo/IDN60801/IDN60801.94746.json

Data quality

Most of these data are generated automatically and are frequently updated. Quality checks on data are not normally performed. It is possible for incorrect values to appear. Refer to information at About Latest Weather Observations and please check the disclaimer before using these data.